createdAt,value
2022-07-29T00:02:16.136Z,16.39
2022-07-29T00:04:42.861Z,16.39
2022-07-29T00:07:09.478Z,16.45
2022-07-29T00:09:44.876Z,16.44
2022-07-29T00:12:21.520Z,16.43
2022-07-29T00:14:53.615Z,16.28
2022-07-29T00:17:20.366Z,16.19
2022-07-29T00:19:46.949Z,16.08
2022-07-29T00:22:13.445Z,16.03
2022-07-29T00:24:39.956Z,16.07
2022-07-29T00:27:07.113Z,15.99
2022-07-29T00:29:34.899Z,15.95
2022-07-29T00:32:02.474Z,16.02
2022-07-29T00:34:47.522Z,16.02
2022-07-29T00:37:13.964Z,15.97
2022-07-29T00:39:40.454Z,15.85
2022-07-29T00:42:07.148Z,15.75
2022-07-29T00:44:38.612Z,15.68
2022-07-29T00:47:05.634Z,15.69
2022-07-29T00:49:32.749Z,15.61
2022-07-29T00:51:59.926Z,15.69
2022-07-29T00:54:27.829Z,15.69
2022-07-29T00:56:54.643Z,15.69
2022-07-29T00:59:21.272Z,15.75
2022-07-29T01:01:47.905Z,15.77
2022-07-29T01:04:14.773Z,15.71
2022-07-29T01:06:43.862Z,15.67
2022-07-29T01:09:11.921Z,15.63
2022-07-29T01:11:39.131Z,15.62
2022-07-29T01:14:07.953Z,15.64
2022-07-29T01:16:43.359Z,15.66
2022-07-29T01:19:31.764Z,15.61
2022-07-29T01:22:03.128Z,15.61
2022-07-29T01:24:44.969Z,15.60
2022-07-29T01:27:16.318Z,15.56
2022-07-29T01:29:56.179Z,15.52
2022-07-29T01:32:29.546Z,15.43
2022-07-29T01:35:08.581Z,15.35
2022-07-29T01:37:46.312Z,15.28
2022-07-29T01:40:22.753Z,15.22
2022-07-29T01:43:01.030Z,15.19
2022-07-29T01:45:47.709Z,15.14
2022-07-29T01:48:19.094Z,15.14
2022-07-29T01:50:49.989Z,15.21
2022-07-29T01:53:26.555Z,15.31
2022-07-29T01:55:55.589Z,15.37
2022-07-29T01:58:27.057Z,15.41
2022-07-29T02:00:56.584Z,15.39
2022-07-29T02:03:24.213Z,15.32
2022-07-29T02:05:52.853Z,15.23
2022-07-29T02:08:20.782Z,15.16
2022-07-29T02:10:49.410Z,15.16
2022-07-29T02:13:18.308Z,15.13
2022-07-29T02:15:45.881Z,15.08
2022-07-29T02:18:17.836Z,15.11
2022-07-29T02:20:53.737Z,15.19
2022-07-29T02:23:24.907Z,15.27
2022-07-29T02:25:55.998Z,15.30
2022-07-29T02:28:28.198Z,15.33
2022-07-29T02:30:58.453Z,15.34
2022-07-29T02:33:26.462Z,15.37
2022-07-29T02:35:53.774Z,15.35
2022-07-29T02:38:40.416Z,15.35
2022-07-29T02:41:12.546Z,15.29
2022-07-29T02:43:41.606Z,15.27
2022-07-29T02:46:28.979Z,15.33
2022-07-29T02:49:02.898Z,15.31
2022-07-29T02:51:51.902Z,15.27
2022-07-29T02:54:24.877Z,15.26
2022-07-29T02:56:56.441Z,15.28
2022-07-29T02:59:27.046Z,15.31
2022-07-29T03:01:56.058Z,15.32
2022-07-29T03:04:25.709Z,15.24
2022-07-29T03:06:53.822Z,15.19
2022-07-29T03:09:21.775Z,15.18
2022-07-29T03:11:49.700Z,15.10
2022-07-29T03:14:20.560Z,15.01
2022-07-29T03:16:47.982Z,14.98
2022-07-29T03:19:14.956Z,15.03
2022-07-29T03:21:41.638Z,15.06
2022-07-29T03:24:10.871Z,15.10
2022-07-29T03:26:40.269Z,15.12
2022-07-29T03:29:07.160Z,15.14
2022-07-29T03:31:34.183Z,15.12
2022-07-29T03:34:00.964Z,15.16
2022-07-29T03:36:27.886Z,15.18
2022-07-29T03:38:55.684Z,15.19
2022-07-29T03:41:26.263Z,15.21
2022-07-29T03:43:54.586Z,15.20
2022-07-29T03:46:27.348Z,15.18
2022-07-29T03:48:59.458Z,15.17
2022-07-29T03:51:33.066Z,15.14
2022-07-29T03:54:00.482Z,15.02
2022-07-29T03:56:28.905Z,14.90
2022-07-29T03:58:56.531Z,14.87
2022-07-29T04:01:24.454Z,14.85
2022-07-29T04:03:51.305Z,14.84
2022-07-29T04:06:17.904Z,14.87
2022-07-29T04:08:44.468Z,14.95
2022-07-29T04:11:13.943Z,15.00
2022-07-29T04:13:40.469Z,14.99
2022-07-29T04:16:07.039Z,15.04
2022-07-29T04:18:33.824Z,15.06
2022-07-29T04:21:01.827Z,15.03
2022-07-29T04:23:33.395Z,15.06
2022-07-29T04:26:02.155Z,15.12
2022-07-29T04:28:29.127Z,15.19
2022-07-29T04:30:55.682Z,15.23
2022-07-29T04:33:22.286Z,15.25
2022-07-29T04:35:52.450Z,15.20
2022-07-29T04:38:23.166Z,15.16
2022-07-29T04:40:49.971Z,15.14
2022-07-29T04:43:16.906Z,15.14
2022-07-29T04:45:49.277Z,15.09
2022-07-29T04:48:15.790Z,15.02
2022-07-29T04:50:43.109Z,14.96
2022-07-29T04:53:09.818Z,14.89
2022-07-29T04:55:39.065Z,14.86
2022-07-29T04:58:05.917Z,14.93
2022-07-29T05:00:33.568Z,14.98
2022-07-29T05:03:00.462Z,15.04
2022-07-29T05:05:27.057Z,15.12
2022-07-29T05:07:53.664Z,15.15
2022-07-29T05:10:20.318Z,15.16
2022-07-29T05:12:46.796Z,15.17
2022-07-29T05:15:13.393Z,15.17
2022-07-29T05:17:40.115Z,15.14
2022-07-29T05:20:07.146Z,15.16
2022-07-29T05:22:33.841Z,15.21
2022-07-29T05:25:02.266Z,15.21
2022-07-29T05:27:32.122Z,15.23
2022-07-29T05:29:58.668Z,15.26
2022-07-29T05:32:25.416Z,15.26
2022-07-29T05:34:52.022Z,15.21
2022-07-29T05:37:20.519Z,15.27
2022-07-29T05:39:50.472Z,15.37
2022-07-29T05:42:23.830Z,15.45
2022-07-29T05:44:50.343Z,15.55
2022-07-29T05:47:17.099Z,15.64
2022-07-29T05:49:43.668Z,15.74
2022-07-29T05:52:10.444Z,15.80
2022-07-29T05:54:37.580Z,15.89
2022-07-29T05:57:04.152Z,16.02
2022-07-29T05:59:30.819Z,16.02
2022-07-29T06:01:58.493Z,16.10
2022-07-29T06:04:25.301Z,16.12
2022-07-29T06:06:51.940Z,16.22
2022-07-29T06:09:18.557Z,16.36
2022-07-29T06:11:45.066Z,16.48
2022-07-29T06:14:12.204Z,16.52
2022-07-29T06:16:38.950Z,16.58
2022-07-29T06:19:05.766Z,16.64
2022-07-29T06:21:32.301Z,16.65
2022-07-29T06:23:58.876Z,16.62
2022-07-29T06:26:30.741Z,16.55
2022-07-29T06:28:58.151Z,16.43
2022-07-29T06:31:24.854Z,16.45
2022-07-29T06:33:51.420Z,16.47
2022-07-29T06:36:21.717Z,16.48
2022-07-29T06:38:51.507Z,16.47
2022-07-29T06:41:19.175Z,16.40
2022-07-29T06:43:52.091Z,16.41
2022-07-29T06:46:22.075Z,16.56
2022-07-29T06:48:49.739Z,16.81
2022-07-29T06:51:22.977Z,17.10
2022-07-29T06:54:00.282Z,17.28
2022-07-29T06:56:40.307Z,17.35
2022-07-29T06:59:11.685Z,17.54
2022-07-29T07:01:43.622Z,17.88
2022-07-29T07:04:10.787Z,18.16
2022-07-29T07:06:37.939Z,18.38
2022-07-29T07:09:05.101Z,18.33
2022-07-29T07:11:31.746Z,18.37
2022-07-29T07:14:03.015Z,18.59
2022-07-29T07:16:30.865Z,18.85
2022-07-29T07:18:57.547Z,19.04
2022-07-29T07:21:24.198Z,19.10
2022-07-29T07:23:50.681Z,19.06
2022-07-29T07:26:17.188Z,19.07
2022-07-29T07:28:43.738Z,19.27
2022-07-29T07:31:10.697Z,19.45
2022-07-29T07:33:37.261Z,19.44
2022-07-29T07:36:04.134Z,19.50
2022-07-29T07:38:30.748Z,19.63
2022-07-29T07:40:57.322Z,19.78
2022-07-29T07:43:23.971Z,19.84
2022-07-29T07:45:50.704Z,19.79
2022-07-29T07:48:17.298Z,19.79
2022-07-29T07:50:44.862Z,19.83
2022-07-29T07:53:11.732Z,19.98
2022-07-29T07:56:09.260Z,20.15
2022-07-29T07:58:31.418Z,20.43
2022-07-29T08:00:58.076Z,20.53
2022-07-29T08:03:24.692Z,20.73
2022-07-29T08:05:55.284Z,20.67
2022-07-29T08:08:22.049Z,20.42
2022-07-29T08:10:54.636Z,20.30
2022-07-29T08:13:22.683Z,20.22
2022-07-29T08:15:58.460Z,20.21
2022-07-29T08:18:26.232Z,20.23
2022-07-29T08:20:52.908Z,20.33
2022-07-29T08:23:20.148Z,20.38
2022-07-29T08:25:46.731Z,20.38
2022-07-29T08:28:17.393Z,20.50
2022-07-29T08:30:43.929Z,20.72
2022-07-29T08:33:10.476Z,20.68
2022-07-29T08:35:37.066Z,20.95
2022-07-29T08:38:04.462Z,21.07
2022-07-29T08:40:32.643Z,21.10
2022-07-29T08:43:00.744Z,21.01
2022-07-29T08:45:30.223Z,20.96
2022-07-29T08:47:57.200Z,21.01
2022-07-29T08:50:26.802Z,20.89
2022-07-29T08:52:57.926Z,20.79
2022-07-29T08:55:26.736Z,20.87
2022-07-29T08:57:57.262Z,21.20
2022-07-29T09:00:26.156Z,21.37
2022-07-29T09:02:58.187Z,21.54
2022-07-29T09:05:26.823Z,21.69
2022-07-29T09:07:53.683Z,21.57
2022-07-29T09:10:20.899Z,21.41
2022-07-29T09:12:47.606Z,21.55
2022-07-29T09:15:14.144Z,21.67
2022-07-29T09:17:42.748Z,21.62
2022-07-29T09:20:14.766Z,21.76
2022-07-29T09:22:42.314Z,22.05
2022-07-29T09:25:09.627Z,22.25
2022-07-29T09:27:36.664Z,22.16
2022-07-29T09:30:11.398Z,21.93
2022-07-29T09:32:57.658Z,21.68
2022-07-29T09:35:25.923Z,21.57
2022-07-29T09:37:52.876Z,21.80
2022-07-29T09:40:37.593Z,22.08
2022-07-29T09:43:14.395Z,21.98
2022-07-29T09:45:41.035Z,21.94
2022-07-29T09:48:18.582Z,22.08
2022-07-29T09:50:47.844Z,22.14
2022-07-29T09:53:31.758Z,22.08
2022-07-29T09:55:58.435Z,22.00
2022-07-29T09:58:25.363Z,21.97
2022-07-29T10:00:53.879Z,22.05
2022-07-29T10:03:20.558Z,22.12
2022-07-29T10:06:06.111Z,22.15
2022-07-29T10:08:32.967Z,22.25
2022-07-29T10:11:12.123Z,22.36
2022-07-29T10:13:39.389Z,22.41
2022-07-29T10:16:07.354Z,22.41
2022-07-29T10:18:35.335Z,22.46
2022-07-29T10:21:02.397Z,22.55
2022-07-29T10:23:46.118Z,22.67
2022-07-29T10:26:14.134Z,23.05
2022-07-29T10:28:40.640Z,23.17
2022-07-29T10:31:13.156Z,23.16
2022-07-29T10:34:26.475Z,23.32
2022-07-29T10:37:05.227Z,23.62
2022-07-29T10:39:53.991Z,23.81
2022-07-29T10:42:33.887Z,24.05
2022-07-29T10:45:02.865Z,24.21
2022-07-29T10:47:31.619Z,24.24
2022-07-29T10:50:01.208Z,24.13
2022-07-29T10:52:58.018Z,24.22
2022-07-29T10:55:45.418Z,24.17
2022-07-29T10:58:17.781Z,24.23
2022-07-29T11:00:45.654Z,24.45
2022-07-29T11:03:50.477Z,24.56
2022-07-29T11:06:26.578Z,24.71
2022-07-29T11:09:25.796Z,24.73
2022-07-29T11:12:02.264Z,24.52
2022-07-29T11:14:59.929Z,24.66
2022-07-29T11:17:26.860Z,24.89
2022-07-29T11:20:31.768Z,24.79
2022-07-29T11:22:59.348Z,24.90
2022-07-29T11:28:23.229Z,25.11
2022-07-29T11:30:54.772Z,25.24
2022-07-29T11:33:54.138Z,25.37
2022-07-29T11:36:28.384Z,25.23
2022-07-29T11:39:36.404Z,25.28
2022-07-29T11:42:32.157Z,25.38
2022-07-29T11:45:41.085Z,25.51
2022-07-29T11:47:55.650Z,25.17
2022-07-29T11:50:36.558Z,25.26
2022-07-29T11:53:12.166Z,25.35
2022-07-29T11:55:51.514Z,25.37
2022-07-29T11:58:25.144Z,25.57
2022-07-29T12:00:53.076Z,25.67
2022-07-29T12:07:02.747Z,24.93
2022-07-29T12:09:11.248Z,25.74
2022-07-29T12:11:41.436Z,25.65
2022-07-29T12:14:08.066Z,25.68
2022-07-29T12:16:38.285Z,25.72
2022-07-29T12:19:05.849Z,25.77
2022-07-29T12:21:52.317Z,25.72
2022-07-29T12:24:23.575Z,25.82
2022-07-29T12:26:55.163Z,25.88
2022-07-29T12:29:33.938Z,25.94
2022-07-29T12:32:02.089Z,25.79
2022-07-29T12:34:30.334Z,25.89
2022-07-29T12:36:57.073Z,26.04
2022-07-29T12:39:23.907Z,26.18
2022-07-29T12:41:50.538Z,26.26
2022-07-29T12:44:17.014Z,26.12
2022-07-29T12:46:43.678Z,26.24
2022-07-29T12:49:10.385Z,26.06
2022-07-29T12:51:39.402Z,26.09
2022-07-29T12:54:11.699Z,26.20
2022-07-29T12:56:43.745Z,26.27
2022-07-29T12:59:18.663Z,26.21
2022-07-29T13:01:46.067Z,26.33
2022-07-29T13:04:25.813Z,26.42
2022-07-29T13:07:01.330Z,26.50
2022-07-29T13:09:41.635Z,26.62
2022-07-29T13:12:13.479Z,26.23
2022-07-29T13:14:45.932Z,26.36
2022-07-29T13:17:16.540Z,26.56
2022-07-29T13:19:45.957Z,26.60
2022-07-29T13:22:18.158Z,26.77
2022-07-29T13:25:03.876Z,26.76
2022-07-29T13:27:35.243Z,26.48
2022-07-29T13:30:04.747Z,26.47
2022-07-29T13:32:35.521Z,26.54
2022-07-29T13:35:04.970Z,26.69
2022-07-29T13:37:34.916Z,26.43
2022-07-29T13:40:04.049Z,26.41
2022-07-29T13:42:30.733Z,26.47
2022-07-29T13:44:57.317Z,26.81
2022-07-29T13:47:32.332Z,26.97
2022-07-29T13:50:00.567Z,27.22
2022-07-29T13:52:27.151Z,27.17
2022-07-29T13:54:54.361Z,27.06
2022-07-29T13:57:20.932Z,26.91
2022-07-29T13:59:51.902Z,26.86
2022-07-29T14:02:20.457Z,26.90
2022-07-29T14:04:47.211Z,26.92
2022-07-29T14:07:16.314Z,27.12
2022-07-29T14:09:43.587Z,27.25
2022-07-29T14:12:10.675Z,27.44
2022-07-29T14:14:37.732Z,27.50
2022-07-29T14:17:07.227Z,27.55
2022-07-29T14:19:36.738Z,27.53
2022-07-29T14:22:08.502Z,27.62
2022-07-29T14:24:37.271Z,27.50
2022-07-29T14:27:05.351Z,27.33
2022-07-29T14:29:36.828Z,27.49
2022-07-29T14:32:08.269Z,27.52
2022-07-29T14:34:36.190Z,27.58
2022-07-29T14:37:03.869Z,27.68
2022-07-29T14:39:31.992Z,27.67
2022-07-29T14:41:59.623Z,27.55
2022-07-29T14:44:32.191Z,27.40
2022-07-29T14:47:07.676Z,27.45
2022-07-29T14:49:35.262Z,27.46
2022-07-29T14:52:02.098Z,27.51
2022-07-29T14:54:28.780Z,27.59
2022-07-29T14:56:58.170Z,27.49
2022-07-29T14:59:25.483Z,27.50
2022-07-29T15:01:52.074Z,27.40
2022-07-29T15:04:18.591Z,27.57
2022-07-29T15:06:45.205Z,27.63
2022-07-29T15:09:11.784Z,27.38
2022-07-29T15:11:38.950Z,27.33
2022-07-29T15:14:08.758Z,27.23
2022-07-29T15:16:39.502Z,27.23
2022-07-29T15:19:10.267Z,27.19
2022-07-29T15:21:41.641Z,27.18
2022-07-29T15:24:16.366Z,27.37
2022-07-29T15:26:44.368Z,27.49
2022-07-29T15:29:10.862Z,27.45
2022-07-29T15:31:37.664Z,27.43
2022-07-29T15:34:06.231Z,27.50
2022-07-29T15:36:51.424Z,27.52
2022-07-29T15:39:19.161Z,27.59
2022-07-29T15:41:45.674Z,27.56
2022-07-29T15:44:12.185Z,27.53
2022-07-29T15:46:57.424Z,27.43
2022-07-29T15:49:24.541Z,27.15
2022-07-29T15:51:51.061Z,27.03
2022-07-29T15:54:17.787Z,27.15
2022-07-29T15:56:44.290Z,27.23
2022-07-29T15:59:10.890Z,27.20
2022-07-29T16:01:49.418Z,27.12
2022-07-29T16:04:17.349Z,27.12
2022-07-29T16:06:45.789Z,27.08
2022-07-29T16:09:12.634Z,27.04
2022-07-29T16:11:39.101Z,27.14
2022-07-29T16:14:05.960Z,27.26
2022-07-29T16:16:35.984Z,27.19
2022-07-29T16:19:03.205Z,27.21
2022-07-29T16:21:31.540Z,27.02
2022-07-29T16:24:01.173Z,27.00
2022-07-29T16:26:28.321Z,26.83
2022-07-29T16:28:56.130Z,26.65
2022-07-29T16:31:23.096Z,26.64
2022-07-29T16:33:55.248Z,26.67
2022-07-29T16:36:23.215Z,26.72
2022-07-29T16:38:50.601Z,26.88
2022-07-29T16:41:17.153Z,26.79
2022-07-29T16:43:43.607Z,26.64
2022-07-29T16:46:14.686Z,26.64
2022-07-29T16:48:45.761Z,26.50
2022-07-29T16:51:14.229Z,26.48
2022-07-29T16:53:41.812Z,26.49
2022-07-29T16:56:12.788Z,26.52
2022-07-29T16:58:43.896Z,26.42
2022-07-29T17:01:11.375Z,26.43
2022-07-29T17:04:00.184Z,26.41
2022-07-29T17:06:27.708Z,26.42
2022-07-29T17:08:54.253Z,26.48
2022-07-29T17:11:20.737Z,26.39
2022-07-29T17:13:47.370Z,26.33
2022-07-29T17:16:13.996Z,26.35
2022-07-29T17:18:40.657Z,26.41
2022-07-29T17:21:07.135Z,26.26
2022-07-29T17:23:33.701Z,26.18
2022-07-29T17:26:00.179Z,26.17
2022-07-29T17:28:28.926Z,26.11
2022-07-29T17:30:55.495Z,26.00
2022-07-29T17:33:23.462Z,25.94
2022-07-29T17:36:08.729Z,25.87
2022-07-29T17:38:35.229Z,25.91
2022-07-29T17:41:01.851Z,25.87
2022-07-29T17:43:34.251Z,25.83
2022-07-29T17:46:03.091Z,25.82
2022-07-29T17:48:29.715Z,25.77
2022-07-29T17:50:56.546Z,25.76
2022-07-29T17:53:23.163Z,25.75
2022-07-29T17:55:49.704Z,25.77
2022-07-29T17:58:16.351Z,25.71
2022-07-29T18:00:43.622Z,25.65
2022-07-29T18:03:10.403Z,25.60
2022-07-29T18:05:37.524Z,25.57
2022-07-29T18:08:04.266Z,25.55
2022-07-29T18:10:31.273Z,25.47
2022-07-29T18:12:57.867Z,25.35
2022-07-29T18:15:24.386Z,25.34
2022-07-29T18:17:57.072Z,25.17
2022-07-29T18:20:25.151Z,25.18
2022-07-29T18:22:54.574Z,25.20
2022-07-29T18:25:21.270Z,25.19
2022-07-29T18:27:47.847Z,25.20
2022-07-29T18:30:17.518Z,25.19
2022-07-29T18:32:59.241Z,25.12
2022-07-29T18:35:30.818Z,25.03
2022-07-29T18:38:00.852Z,24.97
2022-07-29T18:40:29.822Z,24.95
2022-07-29T18:42:56.568Z,24.89
2022-07-29T18:45:23.269Z,24.82
2022-07-29T18:47:55.673Z,24.77
2022-07-29T18:50:28.803Z,24.64
2022-07-29T18:52:58.466Z,24.59
2022-07-29T18:55:26.146Z,24.48
2022-07-29T18:57:53.188Z,24.27
2022-07-29T19:00:23.993Z,24.13
2022-07-29T19:02:58.468Z,23.94
2022-07-29T19:05:25.136Z,23.82
2022-07-29T19:07:51.726Z,23.76
2022-07-29T19:10:18.678Z,23.70
2022-07-29T19:12:45.234Z,23.50
2022-07-29T19:15:19.980Z,23.38
2022-07-29T19:17:49.736Z,23.29
2022-07-29T19:20:16.521Z,23.27
2022-07-29T19:22:43.032Z,23.11
2022-07-29T19:25:10.048Z,23.09
2022-07-29T19:27:36.863Z,22.99
2022-07-29T19:30:06.485Z,22.93
2022-07-29T19:32:33.157Z,22.79
2022-07-29T19:35:18.571Z,22.66
2022-07-29T19:37:45.064Z,22.58
2022-07-29T19:40:12.631Z,22.57
2022-07-29T19:42:39.422Z,22.54
2022-07-29T19:45:06.565Z,22.45
2022-07-29T19:47:33.119Z,22.41
2022-07-29T19:50:00.680Z,22.36
2022-07-29T19:52:32.567Z,22.31
2022-07-29T19:54:59.824Z,22.13
2022-07-29T19:57:28.564Z,22.06
2022-07-29T20:00:08.608Z,22.03
2022-07-29T20:02:39.290Z,21.90
2022-07-29T20:05:06.252Z,21.81
2022-07-29T20:07:35.865Z,21.79
2022-07-29T20:10:06.154Z,21.74
2022-07-29T20:12:33.074Z,21.75
2022-07-29T20:15:00.217Z,21.74
2022-07-29T20:17:27.333Z,21.73
2022-07-29T20:19:54.320Z,21.70
2022-07-29T20:22:21.778Z,21.67
2022-07-29T20:24:49.111Z,21.63
2022-07-29T20:27:15.655Z,21.61
2022-07-29T20:29:42.309Z,21.49
2022-07-29T20:32:09.023Z,21.40
2022-07-29T20:34:35.520Z,21.39
2022-07-29T20:37:02.748Z,21.32
2022-07-29T20:39:30.319Z,21.29
2022-07-29T20:41:56.827Z,21.27
2022-07-29T20:44:24.290Z,21.20
2022-07-29T20:46:51.023Z,21.12
2022-07-29T20:49:17.694Z,21.08
2022-07-29T20:51:44.367Z,20.98
2022-07-29T20:54:11.732Z,20.90
2022-07-29T20:56:38.826Z,20.72
2022-07-29T20:59:05.344Z,20.64
2022-07-29T21:01:31.951Z,20.68
2022-07-29T21:03:58.622Z,20.67
2022-07-29T21:06:25.146Z,20.69
2022-07-29T21:08:51.797Z,20.65
2022-07-29T21:11:18.634Z,20.62
2022-07-29T21:14:05.206Z,20.60
2022-07-29T21:16:33.635Z,20.52
2022-07-29T21:19:00.245Z,20.50
2022-07-29T21:21:26.952Z,20.43
2022-07-29T21:23:53.533Z,20.39
2022-07-29T21:26:20.004Z,20.36
2022-07-29T21:28:46.498Z,20.32
2022-07-29T21:31:17.093Z,20.30
2022-07-29T21:33:46.370Z,20.25
2022-07-29T21:36:47.227Z,20.22
2022-07-29T21:39:06.797Z,20.13
2022-07-29T21:41:34.449Z,20.06
2022-07-29T21:44:01.361Z,19.92
2022-07-29T21:46:28.250Z,19.93
2022-07-29T21:48:54.912Z,19.91
2022-07-29T21:51:21.533Z,19.86
2022-07-29T21:53:48.091Z,19.79
2022-07-29T21:56:15.211Z,19.74
2022-07-29T21:58:44.492Z,19.70
2022-07-29T22:01:11.147Z,19.64
2022-07-29T22:03:37.727Z,19.66
2022-07-29T22:06:04.542Z,19.60
2022-07-29T22:08:31.157Z,19.37
2022-07-29T22:10:57.619Z,19.28
2022-07-29T22:13:24.159Z,19.31
2022-07-29T22:15:50.746Z,19.36
2022-07-29T22:18:20.420Z,19.40
2022-07-29T22:20:48.253Z,19.40
2022-07-29T22:23:14.861Z,19.36
2022-07-29T22:25:41.341Z,19.39
2022-07-29T22:28:07.851Z,19.33
2022-07-29T22:30:34.466Z,19.30
2022-07-29T22:33:01.050Z,19.28
2022-07-29T22:35:27.524Z,19.23
2022-07-29T22:37:54.229Z,19.18
2022-07-29T22:40:20.817Z,19.13
2022-07-29T22:42:47.419Z,19.07
2022-07-29T22:45:14.064Z,19.02
2022-07-29T22:47:48.133Z,18.95
2022-07-29T22:50:15.758Z,18.89
2022-07-29T22:52:42.330Z,18.91
2022-07-29T22:55:09.138Z,18.92
2022-07-29T22:57:35.758Z,18.89
2022-07-29T23:00:02.445Z,18.86
2022-07-29T23:02:29.259Z,18.83
2022-07-29T23:04:56.165Z,18.79
2022-07-29T23:07:23.385Z,18.79
2022-07-29T23:09:49.958Z,18.75
2022-07-29T23:12:16.531Z,18.78
2022-07-29T23:14:43.827Z,18.75
2022-07-29T23:17:10.401Z,18.74
2022-07-29T23:19:36.944Z,18.70
2022-07-29T23:22:03.689Z,18.66
2022-07-29T23:24:30.142Z,18.59
2022-07-29T23:26:56.610Z,18.53
2022-07-29T23:29:23.196Z,18.50
2022-07-29T23:31:49.793Z,18.44
2022-07-29T23:34:16.391Z,18.47
2022-07-29T23:36:42.964Z,18.47
2022-07-29T23:39:11.412Z,18.51
2022-07-29T23:41:38.058Z,18.55
2022-07-29T23:44:05.102Z,18.50
2022-07-29T23:46:31.749Z,18.47
2022-07-29T23:48:58.447Z,18.39
2022-07-29T23:51:25.002Z,18.37
2022-07-29T23:53:53.352Z,18.35
2022-07-29T23:56:21.149Z,18.25
2022-07-29T23:58:47.665Z,18.20
